sensor_id;sensor_type;location;lat;lon;timestamp;P1;durP1;ratioP1;P2;durP2;ratioP2
9398;SDS011;4739;49.334;8.792;2022-12-28T00:01:47;15.07;;;10.70;;
9398;SDS011;4739;49.334;8.792;2022-12-28T00:04:13;21.93;;;11.67;;
9398;SDS011;4739;49.334;8.792;2022-12-28T00:06:39;18.97;;;11.23;;
9398;SDS011;4739;49.334;8.792;2022-12-28T00:09:05;19.77;;;12.43;;
9398;SDS011;4739;49.334;8.792;2022-12-28T00:11:30;12.13;;;10.40;;
9398;SDS011;4739;49.334;8.792;2022-12-28T00:13:56;19.57;;;11.87;;
9398;SDS011;4739;49.334;8.792;2022-12-28T00:16:25;14.13;;;10.47;;
9398;SDS011;4739;49.334;8.792;2022-12-28T00:18:54;17.27;;;11.13;;
9398;SDS011;4739;49.334;8.792;2022-12-28T00:21:21;15.43;;;11.03;;
9398;SDS011;4739;49.334;8.792;2022-12-28T00:23:48;12.37;;;9.60;;
9398;SDS011;4739;49.334;8.792;2022-12-28T00:26:17;11.50;;;9.53;;
9398;SDS011;4739;49.334;8.792;2022-12-28T00:28:44;11.43;;;9.70;;
9398;SDS011;4739;49.334;8.792;2022-12-28T00:31:10;12.70;;;10.23;;
9398;SDS011;4739;49.334;8.792;2022-12-28T00:33:36;11.07;;;9.83;;
9398;SDS011;4739;49.334;8.792;2022-12-28T00:36:01;10.53;;;8.90;;
9398;SDS011;4739;49.334;8.792;2022-12-28T00:38:28;12.97;;;9.27;;
9398;SDS011;4739;49.334;8.792;2022-12-28T00:40:57;11.57;;;9.57;;
9398;SDS011;4739;49.334;8.792;2022-12-28T00:43:23;11.67;;;8.90;;
9398;SDS011;4739;49.334;8.792;2022-12-28T00:45:49;10.83;;;8.40;;
9398;SDS011;4739;49.334;8.792;2022-12-28T00:48:15;9.13;;;7.93;;
9398;SDS011;4739;49.334;8.792;2022-12-28T00:50:41;10.83;;;8.53;;
9398;SDS011;4739;49.334;8.792;2022-12-28T00:53:07;10.07;;;7.60;;
9398;SDS011;4739;49.334;8.792;2022-12-28T00:55:33;8.33;;;7.50;;
9398;SDS011;4739;49.334;8.792;2022-12-28T00:58:00;12.00;;;9.37;;
9398;SDS011;4739;49.334;8.792;2022-12-28T01:00:26;11.80;;;9.87;;
9398;SDS011;4739;49.334;8.792;2022-12-28T01:02:52;9.40;;;8.40;;
9398;SDS011;4739;49.334;8.792;2022-12-28T01:05:18;9.43;;;8.03;;
9398;SDS011;4739;49.334;8.792;2022-12-28T01:07:44;11.23;;;8.70;;
9398;SDS011;4739;49.334;8.792;2022-12-28T01:10:10;11.83;;;9.03;;
9398;SDS011;4739;49.334;8.792;2022-12-28T01:12:35;9.87;;;8.77;;
9398;SDS011;4739;49.334;8.792;2022-12-28T01:15:04;10.23;;;8.73;;
9398;SDS011;4739;49.334;8.792;2022-12-28T01:17:32;10.17;;;8.20;;
9398;SDS011;4739;49.334;8.792;2022-12-28T01:19:57;11.27;;;8.93;;
9398;SDS011;4739;49.334;8.792;2022-12-28T01:22:24;11.00;;;9.30;;
9398;SDS011;4739;49.334;8.792;2022-12-28T01:24:50;9.53;;;7.77;;
9398;SDS011;4739;49.334;8.792;2022-12-28T01:27:16;11.73;;;9.27;;
9398;SDS011;4739;49.334;8.792;2022-12-28T01:29:41;9.90;;;8.67;;
9398;SDS011;4739;49.334;8.792;2022-12-28T01:32:07;8.50;;;7.63;;
9398;SDS011;4739;49.334;8.792;2022-12-28T01:34:32;8.30;;;7.50;;
9398;SDS011;4739;49.334;8.792;2022-12-28T01:36:58;8.00;;;7.30;;
9398;SDS011;4739;49.334;8.792;2022-12-28T01:39:23;7.63;;;6.57;;
9398;SDS011;4739;49.334;8.792;2022-12-28T01:41:49;6.57;;;5.77;;
9398;SDS011;4739;49.334;8.792;2022-12-28T01:46:46;8.43;;;6.70;;
9398;SDS011;4739;49.334;8.792;2022-12-28T01:51:50;7.80;;;7.00;;
9398;SDS011;4739;49.334;8.792;2022-12-28T01:54:23;7.43;;;6.63;;
9398;SDS011;4739;49.334;8.792;2022-12-28T01:56:51;7.53;;;6.80;;
9398;SDS011;4739;49.334;8.792;2022-12-28T01:59:18;7.90;;;7.20;;
9398;SDS011;4739;49.334;8.792;2022-12-28T02:01:46;7.97;;;7.10;;
9398;SDS011;4739;49.334;8.792;2022-12-28T02:04:12;8.10;;;7.30;;
9398;SDS011;4739;49.334;8.792;2022-12-28T02:06:38;9.00;;;8.10;;
9398;SDS011;4739;49.334;8.792;2022-12-28T02:09:06;8.30;;;7.50;;
9398;SDS011;4739;49.334;8.792;2022-12-28T02:11:44;8.50;;;7.37;;
9398;SDS011;4739;49.334;8.792;2022-12-28T02:14:11;7.30;;;6.60;;
9398;SDS011;4739;49.334;8.792;2022-12-28T02:16:39;7.47;;;6.70;;
9398;SDS011;4739;49.334;8.792;2022-12-28T02:19:06;7.47;;;6.77;;
9398;SDS011;4739;49.334;8.792;2022-12-28T02:27:00;9.57;;;7.93;;
9398;SDS011;4739;49.334;8.792;2022-12-28T02:32:39;8.67;;;7.73;;
9398;SDS011;4739;49.334;8.792;2022-12-28T02:40:37;8.07;;;6.83;;
9398;SDS011;4739;49.334;8.792;2022-12-28T02:43:10;7.67;;;6.27;;
9398;SDS011;4739;49.334;8.792;2022-12-28T02:45:40;7.60;;;6.40;;
9398;SDS011;4739;49.334;8.792;2022-12-28T02:48:26;7.27;;;6.57;;
9398;SDS011;4739;49.334;8.792;2022-12-28T02:56:30;9.00;;;7.30;;
9398;SDS011;4739;49.334;8.792;2022-12-28T02:59:39;9.20;;;7.37;;
9398;SDS011;4739;49.334;8.792;2022-12-28T03:05:05;8.90;;;7.10;;
9398;SDS011;4739;49.334;8.792;2022-12-28T03:07:56;9.13;;;7.40;;
9398;SDS011;4739;49.334;8.792;2022-12-28T03:13:36;7.93;;;7.13;;
9398;SDS011;4739;49.334;8.792;2022-12-28T03:16:28;7.97;;;7.17;;
9398;SDS011;4739;49.334;8.792;2022-12-28T03:19:17;9.70;;;7.43;;
9398;SDS011;4739;49.334;8.792;2022-12-28T03:22:03;8.70;;;7.40;;
9398;SDS011;4739;49.334;8.792;2022-12-28T03:24:48;8.80;;;7.40;;
9398;SDS011;4739;49.334;8.792;2022-12-28T03:27:33;8.57;;;7.27;;
9398;SDS011;4739;49.334;8.792;2022-12-28T03:30:18;9.87;;;6.77;;
9398;SDS011;4739;49.334;8.792;2022-12-28T03:33:04;10.70;;;7.00;;
9398;SDS011;4739;49.334;8.792;2022-12-28T03:35:53;11.63;;;8.10;;
9398;SDS011;4739;49.334;8.792;2022-12-28T03:38:28;11.43;;;8.53;;
9398;SDS011;4739;49.334;8.792;2022-12-28T03:41:11;11.93;;;8.10;;
9398;SDS011;4739;49.334;8.792;2022-12-28T03:43:42;8.27;;;7.37;;
9398;SDS011;4739;49.334;8.792;2022-12-28T03:48:44;10.27;;;8.23;;
9398;SDS011;4739;49.334;8.792;2022-12-28T03:51:11;11.30;;;7.40;;
9398;SDS011;4739;49.334;8.792;2022-12-28T03:53:47;11.80;;;8.80;;
9398;SDS011;4739;49.334;8.792;2022-12-28T03:56:23;8.40;;;7.33;;
9398;SDS011;4739;49.334;8.792;2022-12-28T03:58:50;11.03;;;8.60;;
9398;SDS011;4739;49.334;8.792;2022-12-28T04:01:16;11.30;;;8.13;;
9398;SDS011;4739;49.334;8.792;2022-12-28T04:03:43;8.43;;;7.27;;
9398;SDS011;4739;49.334;8.792;2022-12-28T04:06:12;11.17;;;7.43;;
9398;SDS011;4739;49.334;8.792;2022-12-28T04:08:43;11.07;;;7.83;;
9398;SDS011;4739;49.334;8.792;2022-12-28T04:11:09;8.27;;;7.33;;
9398;SDS011;4739;49.334;8.792;2022-12-28T04:13:35;10.40;;;8.00;;
9398;SDS011;4739;49.334;8.792;2022-12-28T04:16:03;9.67;;;7.57;;
9398;SDS011;4739;49.334;8.792;2022-12-28T04:18:31;10.37;;;7.87;;
9398;SDS011;4739;49.334;8.792;2022-12-28T04:20:57;9.83;;;8.13;;
9398;SDS011;4739;49.334;8.792;2022-12-28T04:23:24;11.73;;;7.80;;
9398;SDS011;4739;49.334;8.792;2022-12-28T04:25:57;14.87;;;11.57;;
9398;SDS011;4739;49.334;8.792;2022-12-28T04:28:23;14.50;;;11.43;;
9398;SDS011;4739;49.334;8.792;2022-12-28T04:30:50;8.47;;;7.03;;
9398;SDS011;4739;49.334;8.792;2022-12-28T04:33:15;9.20;;;7.13;;
9398;SDS011;4739;49.334;8.792;2022-12-28T04:35:41;8.57;;;6.47;;
9398;SDS011;4739;49.334;8.792;2022-12-28T04:38:07;7.43;;;6.43;;
9398;SDS011;4739;49.334;8.792;2022-12-28T04:40:32;7.63;;;6.37;;
9398;SDS011;4739;49.334;8.792;2022-12-28T04:42:58;7.57;;;6.57;;
9398;SDS011;4739;49.334;8.792;2022-12-28T04:45:23;8.40;;;7.00;;
9398;SDS011;4739;49.334;8.792;2022-12-28T04:47:49;8.67;;;7.17;;
9398;SDS011;4739;49.334;8.792;2022-12-28T04:50:15;10.00;;;7.17;;
9398;SDS011;4739;49.334;8.792;2022-12-28T04:52:40;7.10;;;6.17;;
9398;SDS011;4739;49.334;8.792;2022-12-28T04:55:06;9.20;;;7.10;;
9398;SDS011;4739;49.334;8.792;2022-12-28T04:57:32;7.47;;;6.53;;
9398;SDS011;4739;49.334;8.792;2022-12-28T04:59:58;7.53;;;6.70;;
9398;SDS011;4739;49.334;8.792;2022-12-28T05:02:23;9.30;;;6.93;;
9398;SDS011;4739;49.334;8.792;2022-12-28T05:04:49;8.60;;;7.00;;
9398;SDS011;4739;49.334;8.792;2022-12-28T05:07:14;9.50;;;6.90;;
9398;SDS011;4739;49.334;8.792;2022-12-28T05:09:40;8.23;;;6.60;;
9398;SDS011;4739;49.334;8.792;2022-12-28T05:12:05;8.07;;;7.17;;
9398;SDS011;4739;49.334;8.792;2022-12-28T05:14:31;7.83;;;7.03;;
9398;SDS011;4739;49.334;8.792;2022-12-28T05:16:57;9.60;;;8.17;;
9398;SDS011;4739;49.334;8.792;2022-12-28T05:19:22;13.77;;;9.80;;
9398;SDS011;4739;49.334;8.792;2022-12-28T05:21:48;12.23;;;9.27;;
9398;SDS011;4739;49.334;8.792;2022-12-28T05:24:13;13.40;;;9.27;;
9398;SDS011;4739;49.334;8.792;2022-12-28T05:26:39;13.63;;;9.03;;
9398;SDS011;4739;49.334;8.792;2022-12-28T05:29:04;13.43;;;8.47;;
9398;SDS011;4739;49.334;8.792;2022-12-28T05:31:30;9.57;;;8.63;;
9398;SDS011;4739;49.334;8.792;2022-12-28T05:33:55;9.97;;;8.17;;
9398;SDS011;4739;49.334;8.792;2022-12-28T05:36:22;11.73;;;7.27;;
9398;SDS011;4739;49.334;8.792;2022-12-28T05:38:50;9.97;;;7.40;;
9398;SDS011;4739;49.334;8.792;2022-12-28T05:41:18;10.27;;;7.90;;
9398;SDS011;4739;49.334;8.792;2022-12-28T05:43:46;9.30;;;8.00;;
9398;SDS011;4739;49.334;8.792;2022-12-28T05:46:13;10.17;;;7.40;;
9398;SDS011;4739;49.334;8.792;2022-12-28T05:48:43;8.10;;;7.30;;
9398;SDS011;4739;49.334;8.792;2022-12-28T05:51:10;8.60;;;7.70;;
9398;SDS011;4739;49.334;8.792;2022-12-28T05:53:38;10.20;;;7.73;;
9398;SDS011;4739;49.334;8.792;2022-12-28T05:56:04;10.53;;;8.23;;
9398;SDS011;4739;49.334;8.792;2022-12-28T05:58:32;9.80;;;7.73;;
9398;SDS011;4739;49.334;8.792;2022-12-28T06:01:05;12.77;;;9.63;;
9398;SDS011;4739;49.334;8.792;2022-12-28T06:03:32;8.63;;;7.60;;
9398;SDS011;4739;49.334;8.792;2022-12-28T06:06:01;8.13;;;7.33;;
9398;SDS011;4739;49.334;8.792;2022-12-28T06:08:28;8.60;;;7.07;;
9398;SDS011;4739;49.334;8.792;2022-12-28T06:10:53;8.63;;;7.53;;
9398;SDS011;4739;49.334;8.792;2022-12-28T06:13:22;10.67;;;7.67;;
9398;SDS011;4739;49.334;8.792;2022-12-28T06:15:48;9.07;;;7.40;;
9398;SDS011;4739;49.334;8.792;2022-12-28T06:18:13;8.10;;;7.30;;
9398;SDS011;4739;49.334;8.792;2022-12-28T06:20:39;8.87;;;7.70;;
9398;SDS011;4739;49.334;8.792;2022-12-28T06:23:04;8.73;;;7.40;;
9398;SDS011;4739;49.334;8.792;2022-12-28T06:25:30;9.27;;;7.10;;
9398;SDS011;4739;49.334;8.792;2022-12-28T06:27:55;8.17;;;6.80;;
9398;SDS011;4739;49.334;8.792;2022-12-28T06:30:21;9.40;;;8.10;;
9398;SDS011;4739;49.334;8.792;2022-12-28T06:32:47;11.83;;;7.50;;
9398;SDS011;4739;49.334;8.792;2022-12-28T06:35:12;8.00;;;7.20;;
9398;SDS011;4739;49.334;8.792;2022-12-28T06:37:38;10.40;;;7.70;;
9398;SDS011;4739;49.334;8.792;2022-12-28T06:40:03;9.73;;;8.27;;
9398;SDS011;4739;49.334;8.792;2022-12-28T06:42:29;9.13;;;7.50;;
9398;SDS011;4739;49.334;8.792;2022-12-28T06:44:55;9.23;;;7.83;;
9398;SDS011;4739;49.334;8.792;2022-12-28T06:47:20;8.30;;;7.20;;
9398;SDS011;4739;49.334;8.792;2022-12-28T06:49:46;9.53;;;7.60;;
9398;SDS011;4739;49.334;8.792;2022-12-28T06:52:11;8.60;;;7.70;;
9398;SDS011;4739;49.334;8.792;2022-12-28T06:54:37;9.00;;;6.87;;
9398;SDS011;4739;49.334;8.792;2022-12-28T06:57:02;8.80;;;7.90;;
9398;SDS011;4739;49.334;8.792;2022-12-28T06:59:28;11.97;;;9.40;;
9398;SDS011;4739;49.334;8.792;2022-12-28T07:01:54;10.77;;;9.67;;
9398;SDS011;4739;49.334;8.792;2022-12-28T07:04:19;13.77;;;10.73;;
9398;SDS011;4739;49.334;8.792;2022-12-28T07:06:45;11.40;;;9.20;;
9398;SDS011;4739;49.334;8.792;2022-12-28T07:09:12;10.47;;;8.40;;
9398;SDS011;4739;49.334;8.792;2022-12-28T07:11:40;11.93;;;9.33;;
9398;SDS011;4739;49.334;8.792;2022-12-28T07:14:06;10.07;;;8.33;;
9398;SDS011;4739;49.334;8.792;2022-12-28T07:16:32;9.40;;;7.87;;
9398;SDS011;4739;49.334;8.792;2022-12-28T07:18:58;9.50;;;8.10;;
9398;SDS011;4739;49.334;8.792;2022-12-28T07:21:26;11.50;;;9.60;;
9398;SDS011;4739;49.334;8.792;2022-12-28T07:23:53;12.63;;;10.13;;
9398;SDS011;4739;49.334;8.792;2022-12-28T07:26:21;10.07;;;9.07;;
9398;SDS011;4739;49.334;8.792;2022-12-28T07:28:48;12.30;;;10.20;;
9398;SDS011;4739;49.334;8.792;2022-12-28T07:31:17;10.87;;;9.70;;
9398;SDS011;4739;49.334;8.792;2022-12-28T07:33:44;9.67;;;8.47;;
9398;SDS011;4739;49.334;8.792;2022-12-28T07:36:12;11.93;;;10.03;;
9398;SDS011;4739;49.334;8.792;2022-12-28T07:38:39;11.77;;;9.83;;
9398;SDS011;4739;49.334;8.792;2022-12-28T07:41:06;9.13;;;8.10;;
9398;SDS011;4739;49.334;8.792;2022-12-28T07:43:43;10.90;;;9.17;;
9398;SDS011;4739;49.334;8.792;2022-12-28T07:46:09;9.00;;;8.10;;
9398;SDS011;4739;49.334;8.792;2022-12-28T07:48:37;11.27;;;9.20;;
9398;SDS011;4739;49.334;8.792;2022-12-28T07:51:14;8.77;;;7.90;;
9398;SDS011;4739;49.334;8.792;2022-12-28T07:53:50;8.03;;;7.20;;
9398;SDS011;4739;49.334;8.792;2022-12-28T07:56:17;7.70;;;6.90;;
9398;SDS011;4739;49.334;8.792;2022-12-28T07:58:54;15.00;;;9.67;;
9398;SDS011;4739;49.334;8.792;2022-12-28T08:01:22;15.63;;;12.90;;
9398;SDS011;4739;49.334;8.792;2022-12-28T08:03:51;11.70;;;10.60;;
9398;SDS011;4739;49.334;8.792;2022-12-28T08:06:21;11.43;;;9.60;;
9398;SDS011;4739;49.334;8.792;2022-12-28T08:08:48;17.77;;;14.33;;
9398;SDS011;4739;49.334;8.792;2022-12-28T08:11:16;27.33;;;20.23;;
9398;SDS011;4739;49.334;8.792;2022-12-28T08:13:44;16.43;;;13.63;;
9398;SDS011;4739;49.334;8.792;2022-12-28T08:16:12;16.10;;;13.03;;
9398;SDS011;4739;49.334;8.792;2022-12-28T08:18:39;14.63;;;12.40;;
9398;SDS011;4739;49.334;8.792;2022-12-28T08:21:06;14.00;;;12.37;;
9398;SDS011;4739;49.334;8.792;2022-12-28T08:23:34;14.43;;;12.47;;
9398;SDS011;4739;49.334;8.792;2022-12-28T08:26:19;13.63;;;11.73;;
9398;SDS011;4739;49.334;8.792;2022-12-28T08:28:47;15.67;;;12.13;;
9398;SDS011;4739;49.334;8.792;2022-12-28T08:31:21;13.17;;;11.70;;
9398;SDS011;4739;49.334;8.792;2022-12-28T08:33:49;11.73;;;10.33;;
9398;SDS011;4739;49.334;8.792;2022-12-28T08:36:17;10.80;;;9.70;;
9398;SDS011;4739;49.334;8.792;2022-12-28T08:38:43;10.73;;;9.57;;
9398;SDS011;4739;49.334;8.792;2022-12-28T08:41:10;9.43;;;8.47;;
9398;SDS011;4739;49.334;8.792;2022-12-28T08:43:41;10.33;;;8.63;;
9398;SDS011;4739;49.334;8.792;2022-12-28T08:46:09;12.00;;;9.00;;
9398;SDS011;4739;49.334;8.792;2022-12-28T08:48:37;8.57;;;7.77;;
9398;SDS011;4739;49.334;8.792;2022-12-28T08:51:10;9.20;;;8.13;;
9398;SDS011;4739;49.334;8.792;2022-12-28T08:53:38;8.27;;;7.47;;
9398;SDS011;4739;49.334;8.792;2022-12-28T08:56:05;8.67;;;7.63;;
9398;SDS011;4739;49.334;8.792;2022-12-28T08:58:34;8.90;;;7.73;;
9398;SDS011;4739;49.334;8.792;2022-12-28T09:03:33;7.60;;;6.80;;
9398;SDS011;4739;49.334;8.792;2022-12-28T09:06:01;7.83;;;7.03;;
9398;SDS011;4739;49.334;8.792;2022-12-28T09:08:27;8.40;;;7.47;;
9398;SDS011;4739;49.334;8.792;2022-12-28T09:10:53;9.40;;;8.20;;
9398;SDS011;4739;49.334;8.792;2022-12-28T09:13:18;9.40;;;7.93;;
9398;SDS011;4739;49.334;8.792;2022-12-28T09:15:44;11.40;;;9.67;;
9398;SDS011;4739;49.334;8.792;2022-12-28T09:18:20;12.13;;;10.30;;
9398;SDS011;4739;49.334;8.792;2022-12-28T09:20:46;11.87;;;10.47;;
9398;SDS011;4739;49.334;8.792;2022-12-28T09:23:11;13.80;;;10.70;;
9398;SDS011;4739;49.334;8.792;2022-12-28T09:25:37;11.23;;;9.00;;
9398;SDS011;4739;49.334;8.792;2022-12-28T09:28:02;9.77;;;8.50;;
9398;SDS011;4739;49.334;8.792;2022-12-28T09:30:28;10.97;;;9.17;;
9398;SDS011;4739;49.334;8.792;2022-12-28T09:32:54;11.03;;;9.03;;
9398;SDS011;4739;49.334;8.792;2022-12-28T09:35:39;8.67;;;7.70;;
9398;SDS011;4739;49.334;8.792;2022-12-28T09:38:05;11.27;;;8.57;;
9398;SDS011;4739;49.334;8.792;2022-12-28T09:40:32;12.23;;;8.40;;
9398;SDS011;4739;49.334;8.792;2022-12-28T09:42:58;11.13;;;8.17;;
9398;SDS011;4739;49.334;8.792;2022-12-28T09:45:24;12.60;;;9.50;;
9398;SDS011;4739;49.334;8.792;2022-12-28T09:47:51;9.90;;;8.87;;
9398;SDS011;4739;49.334;8.792;2022-12-28T09:50:25;9.60;;;8.60;;
9398;SDS011;4739;49.334;8.792;2022-12-28T09:55:56;10.90;;;8.80;;
9398;SDS011;4739;49.334;8.792;2022-12-28T09:58:22;9.67;;;8.17;;
9398;SDS011;4739;49.334;8.792;2022-12-28T10:00:49;9.90;;;7.90;;
9398;SDS011;4739;49.334;8.792;2022-12-28T10:03:36;10.37;;;8.07;;
9398;SDS011;4739;49.334;8.792;2022-12-28T10:06:25;9.40;;;7.40;;
9398;SDS011;4739;49.334;8.792;2022-12-28T10:08:55;10.03;;;7.90;;
9398;SDS011;4739;49.334;8.792;2022-12-28T10:11:23;10.23;;;8.33;;
9398;SDS011;4739;49.334;8.792;2022-12-28T10:13:54;10.10;;;9.00;;
9398;SDS011;4739;49.334;8.792;2022-12-28T10:16:21;10.97;;;9.00;;
9398;SDS011;4739;49.334;8.792;2022-12-28T10:18:48;10.07;;;9.07;;
9398;SDS011;4739;49.334;8.792;2022-12-28T10:21:18;10.13;;;9.13;;
9398;SDS011;4739;49.334;8.792;2022-12-28T10:23:46;15.13;;;13.47;;
9398;SDS011;4739;49.334;8.792;2022-12-28T10:26:15;19.53;;;17.57;;
9398;SDS011;4739;49.334;8.792;2022-12-28T10:28:43;17.37;;;15.60;;
9398;SDS011;4739;49.334;8.792;2022-12-28T10:31:13;15.03;;;12.60;;
9398;SDS011;4739;49.334;8.792;2022-12-28T10:33:41;12.00;;;10.13;;
9398;SDS011;4739;49.334;8.792;2022-12-28T10:36:16;9.10;;;8.20;;
9398;SDS011;4739;49.334;8.792;2022-12-28T10:38:43;8.40;;;7.43;;
9398;SDS011;4739;49.334;8.792;2022-12-28T10:41:14;10.43;;;7.70;;
9398;SDS011;4739;49.334;8.792;2022-12-28T10:43:51;8.00;;;7.20;;
9398;SDS011;4739;49.334;8.792;2022-12-28T10:46:23;8.93;;;8.13;;
9398;SDS011;4739;49.334;8.792;2022-12-28T10:48:50;11.50;;;10.17;;
9398;SDS011;4739;49.334;8.792;2022-12-28T10:53:54;11.03;;;9.87;;
9398;SDS011;4739;49.334;8.792;2022-12-28T10:56:32;10.33;;;8.43;;
9398;SDS011;4739;49.334;8.792;2022-12-28T11:01:37;9.97;;;8.50;;
9398;SDS011;4739;49.334;8.792;2022-12-28T11:04:06;8.80;;;6.80;;
9398;SDS011;4739;49.334;8.792;2022-12-28T11:06:52;10.80;;;9.70;;
9398;SDS011;4739;49.334;8.792;2022-12-28T11:09:20;10.03;;;9.13;;
9398;SDS011;4739;49.334;8.792;2022-12-28T11:11:47;10.17;;;8.47;;
9398;SDS011;4739;49.334;8.792;2022-12-28T11:16:41;6.93;;;5.93;;
9398;SDS011;4739;49.334;8.792;2022-12-28T11:19:08;7.40;;;6.10;;
9398;SDS011;4739;49.334;8.792;2022-12-28T11:21:35;6.53;;;5.70;;
9398;SDS011;4739;49.334;8.792;2022-12-28T11:24:01;8.37;;;6.87;;
9398;SDS011;4739;49.334;8.792;2022-12-28T11:26:28;7.77;;;6.17;;
9398;SDS011;4739;49.334;8.792;2022-12-28T11:28:55;9.20;;;7.77;;
9398;SDS011;4739;49.334;8.792;2022-12-28T11:31:22;8.03;;;6.57;;
9398;SDS011;4739;49.334;8.792;2022-12-28T11:33:59;5.60;;;4.30;;
9398;SDS011;4739;49.334;8.792;2022-12-28T11:36:28;3.23;;;2.30;;
9398;SDS011;4739;49.334;8.792;2022-12-28T11:38:56;6.90;;;4.33;;
9398;SDS011;4739;49.334;8.792;2022-12-28T11:43:51;4.97;;;3.50;;
9398;SDS011;4739;49.334;8.792;2022-12-28T11:54:03;3.33;;;2.27;;
9398;SDS011;4739;49.334;8.792;2022-12-28T11:59:24;2.10;;;1.90;;
9398;SDS011;4739;49.334;8.792;2022-12-28T12:01:52;2.83;;;2.57;;
9398;SDS011;4739;49.334;8.792;2022-12-28T12:04:29;4.43;;;3.00;;
9398;SDS011;4739;49.334;8.792;2022-12-28T12:09:38;3.93;;;2.40;;
9398;SDS011;4739;49.334;8.792;2022-12-28T12:17:06;3.80;;;2.10;;
9398;SDS011;4739;49.334;8.792;2022-12-28T12:19:41;5.03;;;3.20;;
9398;SDS011;4739;49.334;8.792;2022-12-28T12:22:13;6.43;;;4.63;;
9398;SDS011;4739;49.334;8.792;2022-12-28T12:24:47;8.17;;;5.43;;
9398;SDS011;4739;49.334;8.792;2022-12-28T12:27:43;3.93;;;2.53;;
9398;SDS011;4739;49.334;8.792;2022-12-28T12:30:18;4.77;;;3.03;;
9398;SDS011;4739;49.334;8.792;2022-12-28T12:32:55;2.73;;;2.43;;
9398;SDS011;4739;49.334;8.792;2022-12-28T12:35:27;2.03;;;1.30;;
9398;SDS011;4739;49.334;8.792;2022-12-28T12:37:59;2.27;;;1.17;;
9398;SDS011;4739;49.334;8.792;2022-12-28T12:49:21;1.80;;;1.10;;
9398;SDS011;4739;49.334;8.792;2022-12-28T12:57:19;2.43;;;0.80;;
9398;SDS011;4739;49.334;8.792;2022-12-28T13:00:10;1.67;;;0.73;;
9398;SDS011;4739;49.334;8.792;2022-12-28T13:05:35;2.73;;;1.43;;
9398;SDS011;4739;49.334;8.792;2022-12-28T13:08:04;4.67;;;2.40;;
9398;SDS011;4739;49.334;8.792;2022-12-28T13:10:31;2.47;;;1.97;;
9398;SDS011;4739;49.334;8.792;2022-12-28T13:13:00;4.33;;;2.70;;
9398;SDS011;4739;49.334;8.792;2022-12-28T13:15:27;1.53;;;1.20;;
9398;SDS011;4739;49.334;8.792;2022-12-28T13:17:57;1.40;;;1.00;;
9398;SDS011;4739;49.334;8.792;2022-12-28T13:20:23;2.03;;;1.40;;
9398;SDS011;4739;49.334;8.792;2022-12-28T13:22:50;2.93;;;0.70;;
9398;SDS011;4739;49.334;8.792;2022-12-28T13:25:31;2.43;;;1.17;;
9398;SDS011;4739;49.334;8.792;2022-12-28T13:27:59;4.27;;;1.20;;
9398;SDS011;4739;49.334;8.792;2022-12-28T13:30:27;2.17;;;0.97;;
9398;SDS011;4739;49.334;8.792;2022-12-28T13:32:58;1.00;;;0.90;;
9398;SDS011;4739;49.334;8.792;2022-12-28T13:35:25;0.93;;;0.87;;
9398;SDS011;4739;49.334;8.792;2022-12-28T13:40:27;1.20;;;0.73;;
9398;SDS011;4739;49.334;8.792;2022-12-28T13:46:00;3.10;;;1.70;;
9398;SDS011;4739;49.334;8.792;2022-12-28T13:48:33;1.40;;;0.80;;
9398;SDS011;4739;49.334;8.792;2022-12-28T13:51:01;1.83;;;1.60;;
9398;SDS011;4739;49.334;8.792;2022-12-28T13:53:28;3.50;;;1.93;;
9398;SDS011;4739;49.334;8.792;2022-12-28T13:56:02;3.10;;;1.90;;
9398;SDS011;4739;49.334;8.792;2022-12-28T13:58:31;1.83;;;1.27;;
9398;SDS011;4739;49.334;8.792;2022-12-28T14:01:02;3.57;;;1.20;;
9398;SDS011;4739;49.334;8.792;2022-12-28T14:03:32;2.77;;;1.47;;
9398;SDS011;4739;49.334;8.792;2022-12-28T14:06:02;3.87;;;1.40;;
9398;SDS011;4739;49.334;8.792;2022-12-28T14:08:28;2.47;;;1.60;;
9398;SDS011;4739;49.334;8.792;2022-12-28T14:10:59;2.17;;;1.30;;
9398;SDS011;4739;49.334;8.792;2022-12-28T14:13:25;2.27;;;1.53;;
9398;SDS011;4739;49.334;8.792;2022-12-28T14:15:51;3.07;;;1.30;;
9398;SDS011;4739;49.334;8.792;2022-12-28T14:18:18;6.73;;;3.80;;
9398;SDS011;4739;49.334;8.792;2022-12-28T14:20:48;5.27;;;3.53;;
9398;SDS011;4739;49.334;8.792;2022-12-28T14:23:27;5.93;;;3.60;;
9398;SDS011;4739;49.334;8.792;2022-12-28T14:26:00;7.73;;;4.00;;
9398;SDS011;4739;49.334;8.792;2022-12-28T14:28:32;5.20;;;3.20;;
9398;SDS011;4739;49.334;8.792;2022-12-28T14:31:00;3.43;;;2.23;;
9398;SDS011;4739;49.334;8.792;2022-12-28T14:33:28;3.67;;;2.87;;
9398;SDS011;4739;49.334;8.792;2022-12-28T14:36:01;2.47;;;2.10;;
9398;SDS011;4739;49.334;8.792;2022-12-28T14:38:44;4.03;;;3.30;;
9398;SDS011;4739;49.334;8.792;2022-12-28T14:41:13;5.50;;;4.07;;
9398;SDS011;4739;49.334;8.792;2022-12-28T14:43:42;3.60;;;1.77;;
9398;SDS011;4739;49.334;8.792;2022-12-28T14:46:16;4.43;;;1.90;;
9398;SDS011;4739;49.334;8.792;2022-12-28T14:48:51;4.83;;;2.73;;
9398;SDS011;4739;49.334;8.792;2022-12-28T14:53:54;4.87;;;2.70;;
9398;SDS011;4739;49.334;8.792;2022-12-28T14:56:34;4.20;;;2.80;;
9398;SDS011;4739;49.334;8.792;2022-12-28T14:58:59;3.67;;;2.07;;
9398;SDS011;4739;49.334;8.792;2022-12-28T15:01:38;3.87;;;2.30;;
9398;SDS011;4739;49.334;8.792;2022-12-28T15:04:23;5.63;;;2.60;;
9398;SDS011;4739;49.334;8.792;2022-12-28T15:06:51;5.07;;;2.40;;
9398;SDS011;4739;49.334;8.792;2022-12-28T15:09:16;3.27;;;2.53;;
9398;SDS011;4739;49.334;8.792;2022-12-28T15:11:42;4.07;;;1.87;;
9398;SDS011;4739;49.334;8.792;2022-12-28T15:14:09;5.73;;;1.53;;
9398;SDS011;4739;49.334;8.792;2022-12-28T15:16:35;2.70;;;1.67;;
9398;SDS011;4739;49.334;8.792;2022-12-28T15:19:02;3.30;;;1.73;;
9398;SDS011;4739;49.334;8.792;2022-12-28T15:21:27;3.10;;;1.60;;
9398;SDS011;4739;49.334;8.792;2022-12-28T15:23:53;3.40;;;1.60;;
9398;SDS011;4739;49.334;8.792;2022-12-28T15:26:20;3.90;;;1.80;;
9398;SDS011;4739;49.334;8.792;2022-12-28T15:28:47;7.47;;;3.20;;
9398;SDS011;4739;49.334;8.792;2022-12-28T15:31:14;5.30;;;2.17;;
9398;SDS011;4739;49.334;8.792;2022-12-28T15:33:42;14.73;;;3.50;;
9398;SDS011;4739;49.334;8.792;2022-12-28T15:36:15;3.37;;;2.03;;
9398;SDS011;4739;49.334;8.792;2022-12-28T15:38:42;10.27;;;2.67;;
9398;SDS011;4739;49.334;8.792;2022-12-28T15:41:07;4.87;;;1.43;;
9398;SDS011;4739;49.334;8.792;2022-12-28T15:43:53;3.63;;;2.00;;
9398;SDS011;4739;49.334;8.792;2022-12-28T15:46:19;5.63;;;1.90;;
9398;SDS011;4739;49.334;8.792;2022-12-28T15:48:45;4.30;;;1.40;;
9398;SDS011;4739;49.334;8.792;2022-12-28T15:51:10;2.33;;;1.27;;
9398;SDS011;4739;49.334;8.792;2022-12-28T15:53:36;1.47;;;1.10;;
9398;SDS011;4739;49.334;8.792;2022-12-28T15:56:02;4.37;;;1.27;;
9398;SDS011;4739;49.334;8.792;2022-12-28T15:58:27;2.33;;;1.60;;
9398;SDS011;4739;49.334;8.792;2022-12-28T16:00:53;4.43;;;1.60;;
9398;SDS011;4739;49.334;8.792;2022-12-28T16:03:19;5.03;;;1.10;;
9398;SDS011;4739;49.334;8.792;2022-12-28T16:05:45;1.37;;;1.27;;
9398;SDS011;4739;49.334;8.792;2022-12-28T16:08:11;1.80;;;1.30;;
9398;SDS011;4739;49.334;8.792;2022-12-28T16:10:36;3.90;;;1.73;;
9398;SDS011;4739;49.334;8.792;2022-12-28T16:13:02;3.43;;;1.83;;
9398;SDS011;4739;49.334;8.792;2022-12-28T16:15:28;3.57;;;1.80;;
9398;SDS011;4739;49.334;8.792;2022-12-28T16:17:53;2.93;;;1.47;;
9398;SDS011;4739;49.334;8.792;2022-12-28T16:20:19;3.13;;;1.40;;
9398;SDS011;4739;49.334;8.792;2022-12-28T16:22:45;1.93;;;1.00;;
9398;SDS011;4739;49.334;8.792;2022-12-28T16:25:10;7.03;;;2.03;;
9398;SDS011;4739;49.334;8.792;2022-12-28T16:27:36;3.40;;;1.40;;
9398;SDS011;4739;49.334;8.792;2022-12-28T16:30:02;2.93;;;1.20;;
9398;SDS011;4739;49.334;8.792;2022-12-28T16:32:28;3.60;;;1.40;;
9398;SDS011;4739;49.334;8.792;2022-12-28T16:34:54;3.17;;;1.30;;
9398;SDS011;4739;49.334;8.792;2022-12-28T16:37:19;2.33;;;1.10;;
9398;SDS011;4739;49.334;8.792;2022-12-28T16:39:45;3.53;;;1.60;;
9398;SDS011;4739;49.334;8.792;2022-12-28T16:42:11;1.60;;;1.40;;
9398;SDS011;4739;49.334;8.792;2022-12-28T16:44:39;2.13;;;1.13;;
9398;SDS011;4739;49.334;8.792;2022-12-28T16:47:04;5.37;;;1.80;;
9398;SDS011;4739;49.334;8.792;2022-12-28T16:49:30;1.60;;;1.50;;
9398;SDS011;4739;49.334;8.792;2022-12-28T16:51:56;2.20;;;1.67;;
9398;SDS011;4739;49.334;8.792;2022-12-28T16:54:23;3.67;;;1.83;;